sensor_id;sensor_type;location;lat;lon;timestamp;pressure;altitude;pressure_sealevel;temperature;humidity
77227;BME280;66234;47.642;19.144;2024-01-11T00:01:09;101736.16;;;-6.79;98.10
77227;BME280;66234;47.642;19.144;2024-01-11T00:04:15;101738.97;;;-6.84;97.35
77227;BME280;66234;47.642;19.144;2024-01-11T00:07:18;101738.63;;;-6.96;97.35
77227;BME280;66234;47.642;19.144;2024-01-11T00:10:22;101733.81;;;-7.07;97.85
77227;BME280;66234;47.642;19.144;2024-01-11T00:13:25;101739.31;;;-6.93;98.30
77227;BME280;66234;47.642;19.144;2024-01-11T00:16:27;101738.66;;;-6.98;98.18
77227;BME280;66234;47.642;19.144;2024-01-11T00:19:30;101731.78;;;-6.99;98.45
77227;BME280;66234;47.642;19.144;2024-01-11T00:22:34;101734.56;;;-6.82;97.83
77227;BME280;66234;47.642;19.144;2024-01-11T00:25:36;101738.69;;;-6.76;97.93
77227;BME280;66234;47.642;19.144;2024-01-11T00:28:39;101725.19;;;-6.86;97.74
77227;BME280;66234;47.642;19.144;2024-01-11T00:31:41;101722.72;;;-6.89;98.23
77227;BME280;66234;47.642;19.144;2024-01-11T00:34:44;101720.94;;;-6.88;98.19
77227;BME280;66234;47.642;19.144;2024-01-11T00:37:47;101717.09;;;-7.00;98.10
77227;BME280;66234;47.642;19.144;2024-01-11T00:40:49;101720.66;;;-7.02;98.30
77227;BME280;66234;47.642;19.144;2024-01-11T00:43:52;101731.22;;;-7.07;98.00
77227;BME280;66234;47.642;19.144;2024-01-11T00:46:54;101722.06;;;-7.15;98.17
77227;BME280;66234;47.642;19.144;2024-01-11T00:49:58;101718.41;;;-7.11;97.91
77227;BME280;66234;47.642;19.144;2024-01-11T00:53:00;101716.59;;;-7.09;97.61
77227;BME280;66234;47.642;19.144;2024-01-11T00:56:03;101710.69;;;-7.13;98.15
77227;BME280;66234;47.642;19.144;2024-01-11T00:59:06;101698.22;;;-7.05;98.11
77227;BME280;66234;47.642;19.144;2024-01-11T01:02:09;101701.00;;;-7.09;97.98
77227;BME280;66234;47.642;19.144;2024-01-11T01:05:11;101699.47;;;-7.13;98.14
77227;BME280;66234;47.642;19.144;2024-01-11T01:08:14;101698.91;;;-7.21;98.81
77227;BME280;66234;47.642;19.144;2024-01-11T01:11:17;101702.38;;;-7.22;98.48
77227;BME280;66234;47.642;19.144;2024-01-11T01:14:19;101703.31;;;-7.23;98.71
77227;BME280;66234;47.642;19.144;2024-01-11T01:17:22;101696.25;;;-7.20;98.80
77227;BME280;66234;47.642;19.144;2024-01-11T01:20:25;101694.41;;;-7.18;98.87
77227;BME280;66234;47.642;19.144;2024-01-11T01:23:27;101682.53;;;-7.23;98.85
77227;BME280;66234;47.642;19.144;2024-01-11T01:26:30;101685.38;;;-7.29;98.34
77227;BME280;66234;47.642;19.144;2024-01-11T01:29:32;101688.88;;;-7.30;98.52
77227;BME280;66234;47.642;19.144;2024-01-11T01:32:35;101686.75;;;-7.21;98.53
77227;BME280;66234;47.642;19.144;2024-01-11T01:35:38;101671.88;;;-7.17;98.20
77227;BME280;66234;47.642;19.144;2024-01-11T01:38:41;101661.84;;;-7.26;97.77
77227;BME280;66234;47.642;19.144;2024-01-11T01:41:43;101666.94;;;-7.23;97.79
77227;BME280;66234;47.642;19.144;2024-01-11T01:44:46;101654.19;;;-7.29;97.96
77227;BME280;66234;47.642;19.144;2024-01-11T01:47:48;101660.13;;;-7.26;97.91
77227;BME280;66234;47.642;19.144;2024-01-11T01:50:51;101664.63;;;-7.31;98.11
77227;BME280;66234;47.642;19.144;2024-01-11T01:53:55;101651.41;;;-7.25;98.38
77227;BME280;66234;47.642;19.144;2024-01-11T01:56:59;101653.34;;;-7.30;97.81
77227;BME280;66234;47.642;19.144;2024-01-11T02:00:03;101653.34;;;-7.30;97.78
77227;BME280;66234;47.642;19.144;2024-01-11T02:03:14;101648.19;;;-7.31;97.77
77227;BME280;66234;47.642;19.144;2024-01-11T02:06:18;101631.72;;;-7.30;98.06
77227;BME280;66234;47.642;19.144;2024-01-11T02:09:24;101631.19;;;-7.38;98.01
77227;BME280;66234;47.642;19.144;2024-01-11T02:12:28;101638.78;;;-7.34;97.70
77227;BME280;66234;47.642;19.144;2024-01-11T02:15:31;101632.78;;;-7.36;97.62
77227;BME280;66234;47.642;19.144;2024-01-11T02:18:34;101630.44;;;-7.42;98.60
77227;BME280;66234;47.642;19.144;2024-01-11T02:21:37;101626.94;;;-7.41;98.24
77227;BME280;66234;47.642;19.144;2024-01-11T02:24:40;101625.72;;;-7.32;97.67
77227;BME280;66234;47.642;19.144;2024-01-11T02:27:49;101615.84;;;-7.44;97.16
77227;BME280;66234;47.642;19.144;2024-01-11T02:30:52;101610.03;;;-7.51;97.21
77227;BME280;66234;47.642;19.144;2024-01-11T02:33:55;101602.19;;;-7.49;98.24
77227;BME280;66234;47.642;19.144;2024-01-11T02:36:58;101605.16;;;-7.58;98.34
77227;BME280;66234;47.642;19.144;2024-01-11T02:40:01;101591.13;;;-7.54;97.95
77227;BME280;66234;47.642;19.144;2024-01-11T02:43:11;101582.59;;;-7.58;98.06
77227;BME280;66234;47.642;19.144;2024-01-11T02:46:14;101583.75;;;-7.65;98.46
77227;BME280;66234;47.642;19.144;2024-01-11T02:49:17;101584.50;;;-7.61;97.78
77227;BME280;66234;47.642;19.144;2024-01-11T02:52:20;101570.28;;;-7.74;98.00
77227;BME280;66234;47.642;19.144;2024-01-11T02:55:23;101570.47;;;-7.79;98.18
77227;BME280;66234;47.642;19.144;2024-01-11T02:58:25;101562.75;;;-7.80;97.91
77227;BME280;66234;47.642;19.144;2024-01-11T03:01:28;101564.59;;;-7.84;98.05
77227;BME280;66234;47.642;19.144;2024-01-11T03:04:30;101558.47;;;-7.81;98.54
77227;BME280;66234;47.642;19.144;2024-01-11T03:07:33;101556.38;;;-7.73;98.25
77227;BME280;66234;47.642;19.144;2024-01-11T03:10:38;101548.59;;;-7.73;97.86
77227;BME280;66234;47.642;19.144;2024-01-11T03:13:41;101548.44;;;-7.69;97.93
77227;BME280;66234;47.642;19.144;2024-01-11T03:16:43;101551.09;;;-7.70;98.70
77227;BME280;66234;47.642;19.144;2024-01-11T03:19:46;101547.53;;;-7.68;98.70
77227;BME280;66234;47.642;19.144;2024-01-11T03:22:48;101537.03;;;-7.65;98.59
77227;BME280;66234;47.642;19.144;2024-01-11T03:25:51;101536.16;;;-7.65;98.74
77227;BME280;66234;47.642;19.144;2024-01-11T03:28:53;101542.22;;;-7.65;98.32
77227;BME280;66234;47.642;19.144;2024-01-11T03:31:56;101538.75;;;-7.65;97.84
77227;BME280;66234;47.642;19.144;2024-01-11T03:34:58;101528.38;;;-7.65;98.39
77227;BME280;66234;47.642;19.144;2024-01-11T03:38:01;101538.69;;;-7.64;98.47
77227;BME280;66234;47.642;19.144;2024-01-11T03:41:08;101527.84;;;-7.73;98.03
77227;BME280;66234;47.642;19.144;2024-01-11T03:44:12;101525.59;;;-7.61;97.50
77227;BME280;66234;47.642;19.144;2024-01-11T03:47:15;101524.09;;;-7.66;96.79
77227;BME280;66234;47.642;19.144;2024-01-11T03:50:17;101510.94;;;-7.83;97.74
77227;BME280;66234;47.642;19.144;2024-01-11T03:53:22;101516.09;;;-7.82;97.77
77227;BME280;66234;47.642;19.144;2024-01-11T03:56:24;101509.41;;;-7.87;98.22
77227;BME280;66234;47.642;19.144;2024-01-11T03:59:27;101510.28;;;-7.88;98.21
77227;BME280;66234;47.642;19.144;2024-01-11T04:02:30;101514.66;;;-7.90;98.49
77227;BME280;66234;47.642;19.144;2024-01-11T04:05:32;101517.31;;;-7.92;98.43
77227;BME280;66234;47.642;19.144;2024-01-11T04:08:35;101522.38;;;-7.87;98.12
77227;BME280;66234;47.642;19.144;2024-01-11T04:11:38;101521.41;;;-7.85;98.14
77227;BME280;66234;47.642;19.144;2024-01-11T04:14:41;101523.38;;;-7.91;98.24
77227;BME280;66234;47.642;19.144;2024-01-11T04:17:43;101515.41;;;-7.87;97.49
77227;BME280;66234;47.642;19.144;2024-01-11T04:20:46;101517.22;;;-7.89;97.79
77227;BME280;66234;47.642;19.144;2024-01-11T04:23:49;101511.00;;;-7.85;97.34
77227;BME280;66234;47.642;19.144;2024-01-11T04:26:52;101508.97;;;-7.98;96.83
77227;BME280;66234;47.642;19.144;2024-01-11T04:29:55;101513.53;;;-8.05;97.43
77227;BME280;66234;47.642;19.144;2024-01-11T04:32:57;101514.09;;;-7.97;97.86
77227;BME280;66234;47.642;19.144;2024-01-11T04:36:00;101519.22;;;-7.95;98.72
77227;BME280;66234;47.642;19.144;2024-01-11T04:39:02;101517.50;;;-7.96;98.09
77227;BME280;66234;47.642;19.144;2024-01-11T04:42:05;101518.97;;;-7.89;98.14
77227;BME280;66234;47.642;19.144;2024-01-11T04:45:08;101513.19;;;-7.96;97.19
77227;BME280;66234;47.642;19.144;2024-01-11T04:48:10;101515.84;;;-7.97;97.50
77227;BME280;66234;47.642;19.144;2024-01-11T04:51:14;101513.41;;;-8.02;97.45
77227;BME280;66234;47.642;19.144;2024-01-11T04:54:16;101512.81;;;-8.08;96.96
77227;BME280;66234;47.642;19.144;2024-01-11T04:57:19;101503.53;;;-8.14;98.01
77227;BME280;66234;47.642;19.144;2024-01-11T05:00:21;101510.75;;;-8.00;96.97
77227;BME280;66234;47.642;19.144;2024-01-11T05:03:24;101501.38;;;-8.03;97.47
77227;BME280;66234;47.642;19.144;2024-01-11T05:06:26;101506.31;;;-7.97;96.95
77227;BME280;66234;47.642;19.144;2024-01-11T05:09:29;101509.53;;;-8.13;96.56
77227;BME280;66234;47.642;19.144;2024-01-11T05:12:31;101501.69;;;-8.12;97.49
77227;BME280;66234;47.642;19.144;2024-01-11T05:15:34;101502.31;;;-8.05;97.31
77227;BME280;66234;47.642;19.144;2024-01-11T05:18:37;101499.22;;;-8.15;96.45
77227;BME280;66234;47.642;19.144;2024-01-11T05:21:40;101503.69;;;-8.18;96.81
77227;BME280;66234;47.642;19.144;2024-01-11T05:24:42;101513.03;;;-8.14;96.75
77227;BME280;66234;47.642;19.144;2024-01-11T05:27:45;101517.00;;;-8.04;96.97
77227;BME280;66234;47.642;19.144;2024-01-11T05:30:47;101512.63;;;-8.04;97.11
77227;BME280;66234;47.642;19.144;2024-01-11T05:33:50;101510.72;;;-7.99;96.91
77227;BME280;66234;47.642;19.144;2024-01-11T05:36:53;101498.03;;;-8.06;97.35
77227;BME280;66234;47.642;19.144;2024-01-11T05:39:56;101503.34;;;-8.09;96.74
77227;BME280;66234;47.642;19.144;2024-01-11T05:42:59;101509.84;;;-8.21;96.61
77227;BME280;66234;47.642;19.144;2024-01-11T05:46:02;101505.84;;;-8.28;96.82
77227;BME280;66234;47.642;19.144;2024-01-11T05:49:04;101510.69;;;-8.20;96.89
77227;BME280;66234;47.642;19.144;2024-01-11T05:52:07;101504.06;;;-8.06;96.10
77227;BME280;66234;47.642;19.144;2024-01-11T05:55:09;101502.72;;;-8.16;96.15
77227;BME280;66234;47.642;19.144;2024-01-11T05:58:12;101502.06;;;-7.99;96.09
77227;BME280;66234;47.642;19.144;2024-01-11T06:01:15;101496.00;;;-7.98;96.68
77227;BME280;66234;47.642;19.144;2024-01-11T06:04:17;101482.72;;;-8.12;96.77
77227;BME280;66234;47.642;19.144;2024-01-11T06:07:20;101487.66;;;-8.06;96.41
77227;BME280;66234;47.642;19.144;2024-01-11T06:10:22;101476.91;;;-8.19;97.18
77227;BME280;66234;47.642;19.144;2024-01-11T06:13:25;101488.06;;;-8.17;97.17
77227;BME280;66234;47.642;19.144;2024-01-11T06:16:28;101487.91;;;-8.12;96.79
77227;BME280;66234;47.642;19.144;2024-01-11T06:19:31;101482.03;;;-8.17;95.99
77227;BME280;66234;47.642;19.144;2024-01-11T06:22:33;101477.41;;;-8.09;95.73
77227;BME280;66234;47.642;19.144;2024-01-11T06:25:36;101487.84;;;-8.11;96.56
77227;BME280;66234;47.642;19.144;2024-01-11T06:28:39;101487.84;;;-8.11;95.84
77227;BME280;66234;47.642;19.144;2024-01-11T06:31:41;101473.94;;;-8.10;97.06
77227;BME280;66234;47.642;19.144;2024-01-11T06:34:44;101476.97;;;-7.99;97.77
77227;BME280;66234;47.642;19.144;2024-01-11T06:37:48;101471.22;;;-7.85;97.67
77227;BME280;66234;47.642;19.144;2024-01-11T06:40:51;101471.75;;;-7.77;97.59
77227;BME280;66234;47.642;19.144;2024-01-11T06:43:54;101478.41;;;-7.70;97.74
77227;BME280;66234;47.642;19.144;2024-01-11T06:46:59;101482.38;;;-7.62;97.24
77227;BME280;66234;47.642;19.144;2024-01-11T06:50:04;101485.88;;;-7.63;97.01
77227;BME280;66234;47.642;19.144;2024-01-11T06:53:07;101475.50;;;-7.63;96.93
77227;BME280;66234;47.642;19.144;2024-01-11T06:56:20;101479.19;;;-7.48;96.03
77227;BME280;66234;47.642;19.144;2024-01-11T06:59:23;101481.84;;;-7.50;96.45
77227;BME280;66234;47.642;19.144;2024-01-11T07:02:28;101483.19;;;-7.40;96.04
77227;BME280;66234;47.642;19.144;2024-01-11T07:05:31;101476.16;;;-7.38;96.42
77227;BME280;66234;47.642;19.144;2024-01-11T07:08:34;101464.59;;;-7.31;97.06
77227;BME280;66234;47.642;19.144;2024-01-11T07:11:37;101468.41;;;-7.19;96.25
77227;BME280;66234;47.642;19.144;2024-01-11T07:14:39;101469.22;;;-7.17;96.24
77227;BME280;66234;47.642;19.144;2024-01-11T07:17:42;101466.53;;;-7.16;96.37
77227;BME280;66234;47.642;19.144;2024-01-11T07:20:45;101467.72;;;-7.03;96.82
77227;BME280;66234;47.642;19.144;2024-01-11T07:23:48;101481.28;;;-6.96;96.70
77227;BME280;66234;47.642;19.144;2024-01-11T07:26:51;101476.56;;;-6.88;97.31
77227;BME280;66234;47.642;19.144;2024-01-11T07:29:54;101477.03;;;-6.78;97.00
77227;BME280;66234;47.642;19.144;2024-01-11T07:32:58;101469.97;;;-6.56;96.75
77227;BME280;66234;47.642;19.144;2024-01-11T07:36:01;101468.44;;;-6.42;96.31
77227;BME280;66234;47.642;19.144;2024-01-11T07:39:06;101467.94;;;-6.31;96.45
77227;BME280;66234;47.642;19.144;2024-01-11T07:42:08;101460.41;;;-6.19;97.90
77227;BME280;66234;47.642;19.144;2024-01-11T07:45:11;101458.66;;;-6.01;99.08
77227;BME280;66234;47.642;19.144;2024-01-11T07:48:13;101464.84;;;-5.85;99.28
77227;BME280;66234;47.642;19.144;2024-01-11T07:51:16;101452.09;;;-5.74;98.94
77227;BME280;66234;47.642;19.144;2024-01-11T07:54:19;101450.41;;;-5.58;99.19
77227;BME280;66234;47.642;19.144;2024-01-11T07:57:21;101442.34;;;-5.37;99.73
77227;BME280;66234;47.642;19.144;2024-01-11T08:00:24;101425.88;;;-5.20;100.00
77227;BME280;66234;47.642;19.144;2024-01-11T08:03:26;101416.00;;;-4.98;99.63
77227;BME280;66234;47.642;19.144;2024-01-11T08:06:30;101424.03;;;-4.85;99.53
77227;BME280;66234;47.642;19.144;2024-01-11T08:09:32;101423.63;;;-4.78;99.45
77227;BME280;66234;47.642;19.144;2024-01-11T08:12:36;101426.59;;;-4.68;99.41
77227;BME280;66234;47.642;19.144;2024-01-11T08:15:39;101420.31;;;-4.49;99.14
77227;BME280;66234;47.642;19.144;2024-01-11T08:18:42;101416.09;;;-4.36;98.65
77227;BME280;66234;47.642;19.144;2024-01-11T08:21:46;101414.66;;;-4.26;97.77
77227;BME280;66234;47.642;19.144;2024-01-11T08:24:48;101401.16;;;-4.03;96.57
77227;BME280;66234;47.642;19.144;2024-01-11T08:27:52;101402.88;;;-3.88;95.46
77227;BME280;66234;47.642;19.144;2024-01-11T08:30:55;101395.09;;;-3.74;95.06
77227;BME280;66234;47.642;19.144;2024-01-11T08:33:58;101389.69;;;-3.71;94.17
77227;BME280;66234;47.642;19.144;2024-01-11T08:37:01;101394.38;;;-3.62;93.20
77227;BME280;66234;47.642;19.144;2024-01-11T08:40:05;101411.41;;;-3.55;92.79
77227;BME280;66234;47.642;19.144;2024-01-11T08:43:08;101397.78;;;-3.46;92.33
77227;BME280;66234;47.642;19.144;2024-01-11T08:46:11;101388.56;;;-3.37;91.52
77227;BME280;66234;47.642;19.144;2024-01-11T08:49:14;101401.56;;;-3.21;92.34
77227;BME280;66234;47.642;19.144;2024-01-11T08:52:17;101391.84;;;-3.05;91.46
77227;BME280;66234;47.642;19.144;2024-01-11T08:55:19;101389.34;;;-2.93;90.52
77227;BME280;66234;47.642;19.144;2024-01-11T08:58:22;101395.69;;;-2.83;90.25
77227;BME280;66234;47.642;19.144;2024-01-11T09:01:25;101395.13;;;-2.74;89.96
77227;BME280;66234;47.642;19.144;2024-01-11T09:04:27;101393.31;;;-2.59;88.94
77227;BME280;66234;47.642;19.144;2024-01-11T09:07:32;101394.16;;;-2.45;89.64
77227;BME280;66234;47.642;19.144;2024-01-11T09:10:34;101383.34;;;-2.26;87.38
77227;BME280;66234;47.642;19.144;2024-01-11T09:13:37;101374.41;;;-2.10;86.13
77227;BME280;66234;47.642;19.144;2024-01-11T09:16:40;101369.75;;;-1.92;85.90
77227;BME280;66234;47.642;19.144;2024-01-11T09:19:42;101358.75;;;-1.85;84.70
77227;BME280;66234;47.642;19.144;2024-01-11T09:22:45;101349.44;;;-1.76;84.71
77227;BME280;66234;47.642;19.144;2024-01-11T09:25:49;101342.22;;;-1.60;83.55
77227;BME280;66234;47.642;19.144;2024-01-11T09:28:52;101333.53;;;-1.48;82.97
77227;BME280;66234;47.642;19.144;2024-01-11T09:31:54;101331.44;;;-1.30;79.21
77227;BME280;66234;47.642;19.144;2024-01-11T09:34:57;101316.72;;;-1.08;78.31
77227;BME280;66234;47.642;19.144;2024-01-11T09:38:00;101314.47;;;-0.89;76.97
77227;BME280;66234;47.642;19.144;2024-01-11T09:41:12;101298.19;;;-0.81;75.27
77227;BME280;66234;47.642;19.144;2024-01-11T09:44:16;101302.25;;;-0.77;76.37
77227;BME280;66234;47.642;19.144;2024-01-11T09:47:20;101290.91;;;-0.65;74.04
77227;BME280;66234;47.642;19.144;2024-01-11T09:50:24;101283.09;;;-0.54;72.08
77227;BME280;66234;47.642;19.144;2024-01-11T09:53:28;101273.00;;;-0.37;71.70
77227;BME280;66234;47.642;19.144;2024-01-11T09:56:31;101258.38;;;-0.28;71.12
77227;BME280;66234;47.642;19.144;2024-01-11T09:59:35;101253.47;;;-0.22;72.25
77227;BME280;66234;47.642;19.144;2024-01-11T10:02:39;101235.84;;;-0.09;73.05
77227;BME280;66234;47.642;19.144;2024-01-11T10:05:42;101242.22;;;0.11;69.73
77227;BME280;66234;47.642;19.144;2024-01-11T10:08:45;101234.59;;;0.19;67.53
77227;BME280;66234;47.642;19.144;2024-01-11T10:11:48;101229.22;;;0.21;63.54
77227;BME280;66234;47.642;19.144;2024-01-11T10:14:54;101241.88;;;0.27;64.11
77227;BME280;66234;47.642;19.144;2024-01-11T10:17:57;101243.94;;;0.23;64.33
77227;BME280;66234;47.642;19.144;2024-01-11T10:21:01;101247.88;;;0.29;64.41
77227;BME280;66234;47.642;19.144;2024-01-11T10:24:06;101234.50;;;0.32;64.85
77227;BME280;66234;47.642;19.144;2024-01-11T10:27:09;101231.63;;;0.46;64.96
77227;BME280;66234;47.642;19.144;2024-01-11T10:30:13;101232.59;;;0.56;64.43
77227;BME280;66234;47.642;19.144;2024-01-11T10:33:19;101228.78;;;0.60;63.22
77227;BME280;66234;47.642;19.144;2024-01-11T10:36:23;101216.66;;;0.68;62.59
77227;BME280;66234;47.642;19.144;2024-01-11T10:39:26;101217.88;;;0.75;61.34
77227;BME280;66234;47.642;19.144;2024-01-11T10:42:31;101194.78;;;0.79;62.06
77227;BME280;66234;47.642;19.144;2024-01-11T10:45:36;101184.09;;;0.91;60.67
77227;BME280;66234;47.642;19.144;2024-01-11T10:48:43;101185.03;;;1.01;61.52
77227;BME280;66234;47.642;19.144;2024-01-11T10:51:56;101184.09;;;0.91;59.92
77227;BME280;66234;47.642;19.144;2024-01-11T10:55:01;101185.16;;;1.00;60.85
77227;BME280;66234;47.642;19.144;2024-01-11T10:58:05;101189.09;;;1.05;58.62
77227;BME280;66234;47.642;19.144;2024-01-11T11:01:10;101197.59;;;1.09;57.97
77227;BME280;66234;47.642;19.144;2024-01-11T11:04:14;101189.66;;;1.20;57.65
77227;BME280;66234;47.642;19.144;2024-01-11T11:07:18;101174.66;;;1.31;57.87
77227;BME280;66234;47.642;19.144;2024-01-11T11:10:21;101168.31;;;1.34;57.96
77227;BME280;66234;47.642;19.144;2024-01-11T11:13:25;101167.78;;;1.40;57.73
77227;BME280;66234;47.642;19.144;2024-01-11T11:16:27;101166.34;;;1.47;56.67
77227;BME280;66234;47.642;19.144;2024-01-11T11:19:30;101162.59;;;1.49;56.90
77227;BME280;66234;47.642;19.144;2024-01-11T11:22:34;101155.03;;;1.56;57.71
77227;BME280;66234;47.642;19.144;2024-01-11T11:25:40;101142.28;;;1.61;56.54
77227;BME280;66234;47.642;19.144;2024-01-11T11:28:44;101139.66;;;1.61;56.50
77227;BME280;66234;47.642;19.144;2024-01-11T11:31:46;101139.16;;;1.67;57.11
77227;BME280;66234;47.642;19.144;2024-01-11T11:34:56;101145.91;;;1.60;57.01
77227;BME280;66234;47.642;19.144;2024-01-11T11:37:59;101145.38;;;1.66;56.55
77227;BME280;66234;47.642;19.144;2024-01-11T11:41:01;101128.09;;;1.73;56.31
77227;BME280;66234;47.642;19.144;2024-01-11T11:44:04;101132.13;;;1.77;56.20
77227;BME280;66234;47.642;19.144;2024-01-11T11:47:20;101124.56;;;1.84;56.87
77227;BME280;66234;47.642;19.144;2024-01-11T11:50:24;101117.91;;;1.89;57.82
77227;BME280;66234;47.642;19.144;2024-01-11T11:53:32;101112.56;;;2.00;58.41
77227;BME280;66234;47.642;19.144;2024-01-11T11:56:38;101106.84;;;1.95;56.29
77227;BME280;66234;47.642;19.144;2024-01-11T11:59:41;101109.19;;;1.98;58.54
77227;BME280;66234;47.642;19.144;2024-01-11T12:02:44;101104.97;;;2.07;55.62
77227;BME280;66234;47.642;19.144;2024-01-11T12:05:49;101087.75;;;2.12;53.69
77227;BME280;66234;47.642;19.144;2024-01-11T12:08:53;101081.16;;;2.27;53.74
77227;BME280;66234;47.642;19.144;2024-01-11T12:12:00;101077.19;;;2.42;54.23
77227;BME280;66234;47.642;19.144;2024-01-11T12:15:17;101062.34;;;2.60;53.74
77227;BME280;66234;47.642;19.144;2024-01-11T12:18:21;101071.94;;;2.71;50.95
77227;BME280;66234;47.642;19.144;2024-01-11T12:21:25;101091.72;;;2.86;51.92
77227;BME280;66234;47.642;19.144;2024-01-11T12:24:29;101093.94;;;2.81;51.62
77227;BME280;66234;47.642;19.144;2024-01-11T12:27:34;101091.59;;;2.97;51.15
77227;BME280;66234;47.642;19.144;2024-01-11T12:30:37;101083.41;;;3.00;50.31
77227;BME280;66234;47.642;19.144;2024-01-11T12:33:43;101083.13;;;3.03;47.94
77227;BME280;66234;47.642;19.144;2024-01-11T12:36:48;101083.53;;;2.89;51.13
77227;BME280;66234;47.642;19.144;2024-01-11T12:39:57;101062.69;;;2.95;49.49
77227;BME280;66234;47.642;19.144;2024-01-11T12:43:00;101065.72;;;2.81;45.02
77227;BME280;66234;47.642;19.144;2024-01-11T12:46:02;101061.81;;;2.85;44.43
77227;BME280;66234;47.642;19.144;2024-01-11T12:49:09;101055.97;;;2.72;45.40
77227;BME280;66234;47.642;19.144;2024-01-11T12:52:19;101051.75;;;2.51;45.35
77227;BME280;66234;47.642;19.144;2024-01-11T12:55:26;101060.41;;;2.62;44.18
77227;BME280;66234;47.642;19.144;2024-01-11T12:58:29;101032.47;;;2.50;44.88
77227;BME280;66234;47.642;19.144;2024-01-11T13:01:32;101022.44;;;2.54;45.99
77227;BME280;66234;47.642;19.144;2024-01-11T13:04:35;101023.44;;;2.91;46.44
77227;BME280;66234;47.642;19.144;2024-01-11T13:07:43;101014.81;;;3.08;48.94
77227;BME280;66234;47.642;19.144;2024-01-11T13:10:46;101012.72;;;3.30;49.06
77227;BME280;66234;47.642;19.144;2024-01-11T13:13:51;101004.47;;;3.53;48.67
77227;BME280;66234;47.642;19.144;2024-01-11T13:16:54;100996.88;;;3.30;50.16
77227;BME280;66234;47.642;19.144;2024-01-11T13:19:57;100993.44;;;2.92;50.58
77227;BME280;66234;47.642;19.144;2024-01-11T13:23:31;100980.09;;;2.74;50.76
77227;BME280;66234;47.642;19.144;2024-01-11T13:26:35;100976.78;;;2.53;51.38
77227;BME280;66234;47.642;19.144;2024-01-11T13:29:39;100985.63;;;2.33;53.40
77227;BME280;66234;47.642;19.144;2024-01-11T13:32:42;100977.69;;;2.14;54.54
77227;BME280;66234;47.642;19.144;2024-01-11T13:35:45;100972.78;;;2.00;55.40
77227;BME280;66234;47.642;19.144;2024-01-11T13:38:49;100963.28;;;1.79;56.13
77227;BME280;66234;47.642;19.144;2024-01-11T13:41:53;100964.66;;;1.73;56.33
77227;BME280;66234;47.642;19.144;2024-01-11T13:44:55;100954.66;;;1.67;57.00
77227;BME280;66234;47.642;19.144;2024-01-11T13:47:58;100946.03;;;1.65;56.56
77227;BME280;66234;47.642;19.144;2024-01-11T13:51:02;100934.75;;;1.53;56.85
77227;BME280;66234;47.642;19.144;2024-01-11T13:54:06;100935.19;;;1.58;56.94
77227;BME280;66234;47.642;19.144;2024-01-11T13:57:08;100921.56;;;1.53;57.12
77227;BME280;66234;47.642;19.144;2024-01-11T14:00:11;100915.47;;;1.53;57.68
77227;BME280;66234;47.642;19.144;2024-01-11T14:03:15;100910.84;;;1.45;57.70
77227;BME280;66234;47.642;19.144;2024-01-11T14:06:18;100901.25;;;1.35;56.79
77227;BME280;66234;47.642;19.144;2024-01-11T14:09:21;100903.03;;;1.25;55.83
77227;BME280;66234;47.642;19.144;2024-01-11T14:12:24;100896.66;;;1.27;56.20
77227;BME280;66234;47.642;19.144;2024-01-11T14:15:27;100899.69;;;1.23;57.18
77227;BME280;66234;47.642;19.144;2024-01-11T14:18:30;100905.34;;;1.18;56.72
77227;BME280;66234;47.642;19.144;2024-01-11T14:21:33;100889.94;;;1.14;56.94
77227;BME280;66234;47.642;19.144;2024-01-11T14:24:36;100894.50;;;1.12;55.45
77227;BME280;66234;47.642;19.144;2024-01-11T14:27:39;100876.50;;;1.17;56.09
77227;BME280;66234;47.642;19.144;2024-01-11T14:30:43;100887.97;;;1.06;54.42
77227;BME280;66234;47.642;19.144;2024-01-11T14:33:47;100888.34;;;1.02;55.13
77227;BME280;66234;47.642;19.144;2024-01-11T14:36:51;100891.00;;;1.02;55.15
77227;BME280;66234;47.642;19.144;2024-01-11T14:39:53;100889.44;;;0.99;54.95
77227;BME280;66234;47.642;19.144;2024-01-11T14:42:56;100886.50;;;0.93;55.24
77227;BME280;66234;47.642;19.144;2024-01-11T14:45:59;100888.88;;;0.96;55.18
77227;BME280;66234;47.642;19.144;2024-01-11T14:49:01;100878.34;;;0.96;53.96
77227;BME280;66234;47.642;19.144;2024-01-11T14:52:06;100874.75;;;0.97;54.32
77227;BME280;66234;47.642;19.144;2024-01-11T14:55:09;100871.06;;;0.88;55.19
77227;BME280;66234;47.642;19.144;2024-01-11T14:58:12;100872.44;;;0.83;55.57
77227;BME280;66234;47.642;19.144;2024-01-11T15:01:15;100866.47;;;0.81;54.55
77227;BME280;66234;47.642;19.144;2024-01-11T15:04:17;100867.06;;;0.84;53.90
77227;BME280;66234;47.642;19.144;2024-01-11T15:07:21;100860.13;;;0.83;52.68
77227;BME280;66234;47.642;19.144;2024-01-11T15:10:23;100852.22;;;0.83;53.30
77227;BME280;66234;47.642;19.144;2024-01-11T15:13:26;100845.28;;;0.82;52.55
77227;BME280;66234;47.642;19.144;2024-01-11T15:16:29;100848.19;;;0.79;53.35
77227;BME280;66234;47.642;19.144;2024-01-11T15:19:31;100842.50;;;0.74;53.74
77227;BME280;66234;47.642;19.144;2024-01-11T15:22:34;100831.72;;;0.77;51.56
77227;BME280;66234;47.642;19.144;2024-01-11T15:25:37;100845.59;;;0.89;50.73
77227;BME280;66234;47.642;19.144;2024-01-11T15:28:39;100841.13;;;1.10;47.73
77227;BME280;66234;47.642;19.144;2024-01-11T15:31:42;100835.75;;;1.21;47.08
77227;BME280;66234;47.642;19.144;2024-01-11T15:34:49;100834.09;;;1.20;47.41
77227;BME280;66234;47.642;19.144;2024-01-11T15:37:52;100835.50;;;1.24;47.62
77227;BME280;66234;47.642;19.144;2024-01-11T15:40:54;100832.97;;;1.13;48.72
77227;BME280;66234;47.642;19.144;2024-01-11T15:43:57;100834.91;;;1.11;48.81
77227;BME280;66234;47.642;19.144;2024-01-11T15:47:00;100847.81;;;1.14;48.70
77227;BME280;66234;47.642;19.144;2024-01-11T15:50:02;100858.34;;;1.14;48.66